Time;durP1;ratioP1;P1;durP2;ratioP2;P2;SDS_P1;SDS_P2;PMS_P1;PMS_P2;Temp;Humidity;BMP_temperature;BMP_pressure;BME280_temperature;BME280_humidity;BME280_pressure;Samples;Min_cycle;Max_cycle;Signal;HPM_P1;HPM_P2
2023/12/04 00:02:09;;;;;;;31.42;14.55;;;;;;;;;;6258728;22;20392;-89
2023/12/04 00:04:35;;;;;;;29.15;14.48;;;;;;;;;;6181449;22;20023;-89
2023/12/04 00:07:01;;;;;;;25.77;13.02;;;;;;;;;;6205395;22;20182;-89
2023/12/04 00:09:27;;;;;;;25.40;13.82;;;;;;;;;;6180773;22;20015;-88
2023/12/04 00:11:54;;;;;;;27.42;13.80;;;;;;;;;;6203753;22;20106;-89
2023/12/04 00:14:20;;;;;;;28.67;13.88;;;;;;;;;;6180387;22;20023;-88
2023/12/04 00:16:46;;;;;;;27.08;13.80;;;;;;;;;;6202767;22;20037;-90
2023/12/04 00:19:12;;;;;;;26.90;14.55;;;;;;;;;;6206087;22;20505;-88
2023/12/04 00:21:38;;;;;;;25.55;13.80;;;;;;;;;;6204306;22;20091;-88
2023/12/04 00:24:04;;;;;;;28.25;14.77;;;;;;;;;;6203548;22;20635;-89
2023/12/04 00:26:30;;;;;;;28.80;14.40;;;;;;;;;;6230702;22;20018;-89
2023/12/04 00:28:56;;;;;;;31.35;14.98;;;;;;;;;;6179896;22;20313;-89
2023/12/04 00:31:23;;;;;;;23.98;12.07;;;;;;;;;;6229371;22;20015;-89
2023/12/04 00:33:49;;;;;;;27.20;13.35;;;;;;;;;;6254453;22;20020;-88
2023/12/04 00:36:15;;;;;;;28.67;13.48;;;;;;;;;;6231019;22;20065;-88
2023/12/04 00:38:41;;;;;;;24.52;13.25;;;;;;;;;;6230849;22;20023;-88
2023/12/04 00:41:07;;;;;;;24.33;13.27;;;;;;;;;;6231134;22;20050;-88
2023/12/04 00:43:33;;;;;;;24.48;12.73;;;;;;;;;;6207461;22;20043;-89
2023/12/04 00:45:59;;;;;;;25.63;13.15;;;;;;;;;;6204246;22;20454;-88
2023/12/04 00:48:25;;;;;;;28.48;12.77;;;;;;;;;;6179803;22;20016;-88
2023/12/04 00:50:52;;;;;;;26.27;13.82;;;;;;;;;;6177024;22;20019;-88
2023/12/04 00:53:18;;;;;;;27.27;13.57;;;;;;;;;;6172636;23;20771;-88
2023/12/04 00:55:44;;;;;;;25.50;13.60;;;;;;;;;;6197555;23;20020;-89
2023/12/04 00:58:10;;;;;;;28.42;13.95;;;;;;;;;;6175030;23;20095;-89
2023/12/04 01:00:36;;;;;;;25.13;13.80;;;;;;;;;;6175832;23;20020;-89
2023/12/04 01:03:02;;;;;;;27.95;12.95;;;;;;;;;;6196092;23;20213;-89
2023/12/04 01:05:28;;;;;;;26.63;12.52;;;;;;;;;;6201321;23;20499;-90
2023/12/04 01:07:54;;;;;;;27.45;13.50;;;;;;;;;;6195667;23;20055;-88
2023/12/04 01:10:20;;;;;;;23.92;13.10;;;;;;;;;;6176579;23;20031;-89
2023/12/04 01:12:46;;;;;;;25.90;12.50;;;;;;;;;;6172885;23;20055;-89
2023/12/04 01:15:12;;;;;;;23.55;12.52;;;;;;;;;;6174296;23;20519;-89
2023/12/04 01:17:38;;;;;;;24.80;12.95;;;;;;;;;;6198651;23;20020;-89
2023/12/04 01:20:04;;;;;;;27.65;13.40;;;;;;;;;;6175892;23;20393;-89
2023/12/04 01:22:30;;;;;;;26.50;11.93;;;;;;;;;;6173656;23;20020;-89
2023/12/04 01:24:56;;;;;;;27.48;13.40;;;;;;;;;;6224381;22;20096;-89
2023/12/04 01:27:22;;;;;;;25.60;13.38;;;;;;;;;;6173730;23;20016;-89
2023/12/04 01:29:48;;;;;;;25.92;13.63;;;;;;;;;;6172577;23;20087;-89
2023/12/04 01:32:14;;;;;;;26.17;12.05;;;;;;;;;;6174077;23;20016;-89
2023/12/04 01:34:41;;;;;;;25.85;13.30;;;;;;;;;;6198103;23;20439;-89
2023/12/04 01:37:07;;;;;;;28.13;13.88;;;;;;;;;;6173801;23;20451;-88
2023/12/04 01:39:33;;;;;;;27.48;13.40;;;;;;;;;;6176029;23;20495;-89
2023/12/04 01:42:01;;;;;;;21.20;12.63;;;;;;;;;;6170841;23;20012;-88
2023/12/04 01:44:29;;;;;;;27.95;12.40;;;;;;;;;;6176531;23;20012;-88
2023/12/04 01:46:56;;;;;;;;;;;;;;;;;;6175261;23;20012;-89
2023/12/04 01:49:25;;;;;;;26.95;12.80;;;;;;;;;;6225930;23;19940;-88
2023/12/04 01:51:53;;;;;;;24.48;12.50;;;;;;;;;;6224096;23;20030;-88
2023/12/04 01:54:21;;;;;;;29.83;12.98;;;;;;;;;;6227139;22;20051;-88
2023/12/04 01:56:51;;;;;;;26.45;12.52;;;;;;;;;;6199838;23;20024;-88
2023/12/04 01:59:22;;;;;;;26.40;12.75;;;;;;;;;;6201052;23;20040;-88
2023/12/04 02:01:49;;;;;;;25.20;12.63;;;;;;;;;;6197458;23;20020;-88
2023/12/04 02:04:18;;;;;;;23.83;11.75;;;;;;;;;;6201342;23;20012;-88
2023/12/04 02:06:45;;;;;;;27.25;12.68;;;;;;;;;;6173437;23;20100;-88
2023/12/04 02:09:16;;;;;;;24.17;12.48;;;;;;;;;;6203395;23;20570;-88
2023/12/04 02:11:46;;;;;;;24.42;12.40;;;;;;;;;;6224321;22;20023;-88
2023/12/04 02:14:14;;;;;;;24.90;12.85;;;;;;;;;;6226479;23;20524;-89
2023/12/04 02:16:42;;;;;;;24.52;12.23;;;;;;;;;;6175667;23;20460;-88
2023/12/04 02:19:09;;;;;;;28.17;13.55;;;;;;;;;;6174957;23;20016;-88
2023/12/04 02:21:37;;;;;;;23.65;11.82;;;;;;;;;;6175394;23;20144;-88
2023/12/04 02:24:06;;;;;;;26.15;13.68;;;;;;;;;;6197555;23;20532;-88
2023/12/04 02:26:48;;;;;;;25.77;12.32;;;;;;;;;;6226336;22;20524;-88
2023/12/04 02:29:27;;;;;;;28.40;12.55;;;;;;;;;;6227449;22;20431;-88
2023/12/04 02:31:55;;;;;;;24.65;12.63;;;;;;;;;;6198495;23;20024;-89
2023/12/04 02:34:24;;;;;;;26.55;13.80;;;;;;;;;;6200982;23;20012;-88
2023/12/04 02:36:53;;;;;;;26.27;13.02;;;;;;;;;;6197555;23;20436;-88
2023/12/04 02:39:22;;;;;;;22.40;11.50;;;;;;;;;;6201156;23;20472;-89
2023/12/04 02:41:51;;;;;;;31.15;13.43;;;;;;;;;;6197600;23;20024;-88
2023/12/04 02:44:27;;;;;;;29.27;12.90;;;;;;;;;;6202640;23;20012;-88
2023/12/04 02:46:56;;;;;;;28.10;13.43;;;;;;;;;;6198819;23;20020;-88
2023/12/04 02:49:23;;;;;;;23.83;12.00;;;;;;;;;;6227949;23;20047;-87
2023/12/04 02:51:54;;;;;;;23.38;11.82;;;;;;;;;;6225593;22;20023;-89
2023/12/04 02:54:21;;;;;;;25.00;12.48;;;;;;;;;;6200360;23;20028;-88
2023/12/04 02:56:48;;;;;;;25.02;11.82;;;;;;;;;;6199025;23;20024;-89
2023/12/04 02:59:16;;;;;;;26.00;12.70;;;;;;;;;;6203270;23;20031;-89
2023/12/04 03:01:43;;;;;;;;;;;;;;;;;;6203262;23;20019;-88
2023/12/04 03:04:12;;;;;;;26.67;11.93;;;;;;;;;;6228744;22;19941;-88
2023/12/04 03:06:39;;;;;;;27.50;13.10;;;;;;;;;;6204754;23;20091;-89
2023/12/04 03:09:15;;;;;;;22.63;11.77;;;;;;;;;;6227167;23;20019;-89
2023/12/04 03:11:46;;;;;;;22.65;12.00;;;;;;;;;;6200599;23;20020;-88
2023/12/04 03:14:12;;;;;;;27.15;12.32;;;;;;;;;;6202100;23;20020;-88
2023/12/04 03:16:40;;;;;;;22.08;10.98;;;;;;;;;;6201232;23;20020;-88
2023/12/04 03:19:07;;;;;;;23.70;12.17;;;;;;;;;;6223715;22;20468;-88
2023/12/04 03:21:38;;;;;;;25.85;12.35;;;;;;;;;;6227921;23;20020;-88
2023/12/04 03:24:07;;;;;;;23.23;11.27;;;;;;;;;;6176034;23;20435;-88
2023/12/04 03:26:35;;;;;;;25.80;11.95;;;;;;;;;;6203587;23;20020;-88
2023/12/04 03:29:02;;;;;;;21.58;11.70;;;;;;;;;;6174320;23;20690;-89
2023/12/04 03:31:31;;;;;;;23.85;11.60;;;;;;;;;;6227585;23;20027;-89
2023/12/04 03:34:00;;;;;;;20.85;11.40;;;;;;;;;;6225553;22;20530;-88
2023/12/04 03:36:29;;;;;;;22.48;12.23;;;;;;;;;;6202399;23;20328;-88
2023/12/04 03:38:56;;;;;;;22.77;12.35;;;;;;;;;;6174537;23;20245;-88
2023/12/04 03:41:24;;;;;;;24.13;12.00;;;;;;;;;;6226045;23;20055;-88
2023/12/04 03:43:55;;;;;;;21.75;11.43;;;;;;;;;;6223151;23;20222;-88
2023/12/04 03:46:26;;;;;;;25.00;12.32;;;;;;;;;;6206654;23;20023;-88
2023/12/04 03:48:54;;;;;;;22.10;11.48;;;;;;;;;;6225276;23;20020;-88
2023/12/04 03:51:22;;;;;;;23.45;12.13;;;;;;;;;;6207511;23;20074;-88
2023/12/04 03:53:51;;;;;;;20.48;11.32;;;;;;;;;;6199682;23;20397;-88
2023/12/04 03:56:19;;;;;;;24.27;12.02;;;;;;;;;;6202197;23;20025;-88
2023/12/04 03:58:46;;;;;;;26.88;12.15;;;;;;;;;;6199646;23;20016;-88
2023/12/04 04:01:13;;;;;;;24.88;11.52;;;;;;;;;;6226667;23;20047;-88
2023/12/04 04:03:39;;;;;;;22.48;12.52;;;;;;;;;;6201372;23;20016;-88
2023/12/04 04:06:06;;;;;;;24.35;12.07;;;;;;;;;;6200519;23;20023;-89
2023/12/04 04:08:37;;;;;;;25.88;12.63;;;;;;;;;;6229408;23;20073;-88
2023/12/04 04:11:13;;;;;;;22.08;11.18;;;;;;;;;;6206499;23;20059;-89
2023/12/04 04:13:45;;;;;;;24.02;11.73;;;;;;;;;;6198433;23;20020;-89
2023/12/04 04:16:20;;;;;;;22.80;11.60;;;;;;;;;;6203593;23;20019;-88
2023/12/04 04:18:50;;;;;;;23.55;11.88;;;;;;;;;;6225675;22;20020;-89
2023/12/04 04:21:22;;;;;;;25.38;11.48;;;;;;;;;;6227885;23;20025;-88
2023/12/04 04:23:49;;;;;;;;;;;;;;;;;;6174845;23;20016;-88
2023/12/04 04:26:18;;;;;;;23.13;11.48;;;;;;;;;;6201136;23;19990;-88
2023/12/04 04:28:45;;;;;;;23.98;11.25;;;;;;;;;;6224329;23;20031;-88
2023/12/04 04:31:14;;;;;;;26.02;11.63;;;;;;;;;;6203028;23;20020;-88
2023/12/04 04:33:42;;;;;;;22.98;12.25;;;;;;;;;;6200310;23;20016;-88
2023/12/04 04:36:14;;;;;;;21.15;11.18;;;;;;;;;;6225506;23;20027;-89
2023/12/04 04:38:41;;;;;;;20.17;11.15;;;;;;;;;;6202554;23;20031;-88
2023/12/04 04:41:15;;;;;;;25.80;12.48;;;;;;;;;;6225632;23;20031;-87
2023/12/04 04:43:50;;;;;;;21.45;11.02;;;;;;;;;;6224455;22;20020;-88
2023/12/04 04:46:18;;;;;;;23.50;12.68;;;;;;;;;;6225738;22;20696;-88
2023/12/04 04:48:45;;;;;;;21.67;11.68;;;;;;;;;;6195637;23;20015;-88
2023/12/04 04:51:13;;;;;;;22.75;11.93;;;;;;;;;;6201338;23;20023;-88
2023/12/04 04:53:41;;;;;;;23.95;12.05;;;;;;;;;;6212059;23;20020;-88
2023/12/04 04:56:12;;;;;;;25.38;13.45;;;;;;;;;;6202847;23;20024;-88
2023/12/04 04:58:43;;;;;;;24.02;12.85;;;;;;;;;;6225452;23;20135;-88
2023/12/04 05:01:12;;;;;;;24.77;12.30;;;;;;;;;;6182622;23;20048;-88
2023/12/04 05:03:39;;;;;;;;;;;;;;;;;;6205185;23;20079;-88
2023/12/04 05:06:06;;;;;;;25.95;13.65;;;;;;;;;;6204649;23;19911;-88
2023/12/04 05:08:34;;;;;;;26.25;12.52;;;;;;;;;;6180839;23;20027;-88
2023/12/04 05:11:04;;;;;;;25.00;12.95;;;;;;;;;;6179907;23;20024;-88
2023/12/04 05:13:41;;;;;;;24.98;12.23;;;;;;;;;;6207514;23;20020;-88
2023/12/04 05:16:11;;;;;;;22.75;12.43;;;;;;;;;;6208769;23;20437;-89
2023/12/04 05:18:39;;;;;;;20.40;10.23;;;;;;;;;;6157672;23;20066;-88
2023/12/04 05:21:10;;;;;;;24.98;11.82;;;;;;;;;;6179641;23;20383;-88
2023/12/04 05:23:40;;;;;;;22.35;11.15;;;;;;;;;;6151857;23;20012;-88
2023/12/04 05:26:09;;;;;;;22.15;11.80;;;;;;;;;;6155329;23;20016;-88
2023/12/04 05:28:38;;;;;;;21.77;10.95;;;;;;;;;;6158169;23;20018;-87
2023/12/04 05:31:05;;;;;;;22.20;11.93;;;;;;;;;;6154890;23;20073;-88
2023/12/04 05:33:34;;;;;;;22.52;12.15;;;;;;;;;;6181416;23;20040;-88
2023/12/04 05:36:02;;;;;;;25.48;12.27;;;;;;;;;;6179415;23;20016;-89
2023/12/04 05:38:29;;;;;;;19.63;10.98;;;;;;;;;;6158126;23;20127;-88
2023/12/04 05:40:56;;;;;;;22.90;11.13;;;;;;;;;;6154402;23;20016;-88
2023/12/04 05:43:23;;;;;;;23.27;11.23;;;;;;;;;;6206304;23;20095;-88
2023/12/04 05:45:52;;;;;;;21.05;10.18;;;;;;;;;;6152358;23;20055;-88
2023/12/04 05:48:21;;;;;;;21.70;10.77;;;;;;;;;;6182636;23;20048;-88
2023/12/04 05:50:49;;;;;;;26.20;11.50;;;;;;;;;;6153647;23;20502;-88
2023/12/04 05:53:18;;;;;;;20.10;10.32;;;;;;;;;;6185955;23;20385;-88
2023/12/04 05:55:46;;;;;;;22.20;11.05;;;;;;;;;;6177930;23;20027;-89
2023/12/04 05:58:13;;;;;;;26.33;11.60;;;;;;;;;;6184345;23;20078;-88
2023/12/04 06:00:41;;;;;;;23.30;11.35;;;;;;;;;;6207234;23;20023;-88
2023/12/04 06:03:08;;;;;;;20.38;10.35;;;;;;;;;;6180466;23;20099;-88
2023/12/04 06:05:35;;;;;;;19.63;10.48;;;;;;;;;;6234038;23;20016;-88
2023/12/04 06:08:08;;;;;;;21.65;11.52;;;;;;;;;;6207177;23;20043;-88
2023/12/04 06:10:37;;;;;;;22.52;11.48;;;;;;;;;;6209719;23;20009;-88
2023/12/04 06:13:05;;;;;;;22.95;11.23;;;;;;;;;;6228859;23;20023;-88
2023/12/04 06:15:32;;;;;;;19.23;10.27;;;;;;;;;;6231633;23;20020;-88
2023/12/04 06:17:59;;;;;;;21.17;10.88;;;;;;;;;;6176831;23;20023;-88
2023/12/04 06:20:25;;;;;;;24.30;10.68;;;;;;;;;;6206070;23;20016;-88
2023/12/04 06:22:57;;;;;;;22.55;11.63;;;;;;;;;;6201198;23;20154;-88
2023/12/04 06:25:26;;;;;;;25.02;11.68;;;;;;;;;;6234065;23;20020;-88
2023/12/04 06:27:52;;;;;;;21.95;11.35;;;;;;;;;;6203171;23;20044;-88
2023/12/04 06:30:19;;;;;;;20.20;10.73;;;;;;;;;;6181954;23;20020;-90
2023/12/04 06:32:47;;;;;;;22.55;10.82;;;;;;;;;;6229124;23;20023;-91
2023/12/04 06:35:19;;;;;;;18.48;10.07;;;;;;;;;;6229843;23;20042;-90
2023/12/04 06:37:46;;;;;;;22.55;10.30;;;;;;;;;;6205323;23;20095;-90
2023/12/04 06:40:17;;;;;;;19.45;10.65;;;;;;;;;;6233307;23;20047;-90
2023/12/04 06:42:48;;;;;;;18.38;10.32;;;;;;;;;;6228819;23;20039;-91
2023/12/04 06:45:20;;;;;;;19.23;10.27;;;;;;;;;;6207459;23;20044;-90
2023/12/04 06:47:49;;;;;;;19.63;10.10;;;;;;;;;;6226176;23;20468;-89
2023/12/04 06:50:27;;;;;;;18.73;10.70;;;;;;;;;;6229035;23;20016;-90
2023/12/04 06:53:14;;;;;;;21.75;11.13;;;;;;;;;;6206660;22;20019;-89
2023/12/04 06:55:44;;;;;;;22.13;10.20;;;;;;;;;;6229797;23;20452;-90
2023/12/04 06:58:35;;;;;;;;;;;;;;;;;;;;;
2023/12/04 07:01:21;;;;;;;22.83;10.13;;;;;;;;;;6231577;23;20099;-90
2023/12/04 07:03:56;;;;;;;21.50;10.70;;;;;;;;;;6203468;23;20016;-94
2023/12/04 07:06:42;;;;;;;18.45;10.02;;;;;;;;;;6231481;23;20246;-93
2023/12/04 07:09:09;;;;;;;18.15;9.50;;;;;;;;;;6206282;23;20364;-93
2023/12/04 07:11:38;;;;;;;18.13;9.70;;;;;;;;;;6202840;23;20070;-92
2023/12/04 07:14:07;;;;;;;18.98;10.25;;;;;;;;;;6204576;23;20389;-92
2023/12/04 07:16:40;;;;;;;20.33;9.45;;;;;;;;;;6229630;23;20195;-92
2023/12/04 07:19:40;;;;;;;;;;;;;;;;;;;;;
2023/12/04 07:38:10;;;;;;;18.67;9.88;;;;;;;;;;6224584;22;20030;-83
2023/12/04 07:41:31;;;;;;;18.45;9.45;;;;;;;;;;6139148;23;20186;-83
2023/12/04 07:55:49;;;;;;;;;;;;;;;;;;;;;
2023/12/04 07:59:07;;;;;;;18.02;9.35;;;;;;;;;;5925133;24;20020;-83
2023/12/04 08:12:59;;;;;;;13.90;8.00;;;;;;;;;;5806104;24;20027;-83
2023/12/04 08:41:42;;;;;;;;;;;;;;;;;;;;;
2023/12/04 08:45:05;;;;;;;;;;;;;;;;;;;;;
2023/12/04 08:48:07;;;;;;;;;;;;;;;;;;;;;
2023/12/04 09:05:00;;;;;;;15.30;8.05;;;;;;;;;;5930814;24;20028;-83
2023/12/04 09:09:16;;;;;;;;;;;;;;;;;;;;;
2023/12/04 09:15:24;;;;;;;12.73;7.47;;;;;;;;;;5875417;24;20109;-84
2023/12/04 09:22:38;;;;;;;;;;;;;;;;;;;;;
2023/12/04 09:47:17;;;;;;;;;;;;;;;;;;;;;
2023/12/04 09:50:11;;;;;;;12.50;6.75;;;;;;;;;;5747860;24;20031;-81
2023/12/04 10:56:17;;;;;;;274.50;89.00;;;;;;;;;;6026406;23;20577;-83
2023/12/04 11:02:50;;;;;;;;;;;;;;;;;;;;;
2023/12/04 11:09:46;;;;;;;;;;;;;;;;;;6123296;23;20043;-82
2023/12/04 11:15:11;;;;;;;581.25;160.65;;;;;;;;;;6152910;22;20032;-82
2023/12/04 11:22:46;;;;;;;380.92;130.60;;;;;;;;;;6035364;23;20518;-82
2023/12/04 11:32:45;;;;;;;27.20;21.73;;;;;;;;;;5950074;24;20079;-81
2023/12/04 11:37:59;;;;;;;41.90;27.25;;;;;;;;;;6152850;23;20488;-84
2023/12/04 11:41:12;;;;;;;;;;;;;;;;;;;;;
2023/12/04 11:48:51;;;;;;;12.38;9.10;;;;;;;;;;6116094;23;20029;-84
2023/12/04 11:55:50;;;;;;;9.00;6.37;;;;;;;;;;6108723;23;20037;-84
2023/12/04 12:02:00;;;;;;;12.88;7.15;;;;;;;;;;5908407;24;20132;-84
2023/12/04 12:05:20;;;;;;;13.45;6.45;;;;;;;;;;5896268;24;20020;-84
2023/12/04 12:22:19;;;;;;;;;;;;;;;;;;;;;
2023/12/04 12:32:03;;;;;;;12.15;6.28;;;;;;;;;;5941593;24;20119;-85
2023/12/04 13:13:32;;;;;;;15.70;10.80;;;;;;;;;;6180842;23;19920;-92
2023/12/04 13:16:00;;;;;;;17.45;11.95;;;;;;;;;;6170454;23;20478;-92
2023/12/04 13:18:31;;;;;;;12.05;8.30;;;;;;;;;;6146389;23;20456;-92
2023/12/04 13:21:31;;;;;;;11.30;6.63;;;;;;;;;;6172811;23;20021;-92
2023/12/04 13:24:00;;;;;;;12.93;8.25;;;;;;;;;;6145573;23;20024;-92
2023/12/04 13:26:27;;;;;;;11.40;7.28;;;;;;;;;;6148275;23;20469;-92
2023/12/04 13:28:56;;;;;;;9.80;6.50;;;;;;;;;;6124886;23;20480;-90
2023/12/04 13:31:23;;;;;;;;;;;;;;;;;;6150064;23;20052;-93
2023/12/04 13:33:51;;;;;;;10.68;7.05;;;;;;;;;;6169631;23;20237;-92
2023/12/04 13:36:19;;;;;;;12.30;6.93;;;;;;;;;;6122365;23;20104;-92
2023/12/04 13:38:46;;;;;;;12.63;7.32;;;;;;;;;;6145709;23;20017;-92
2023/12/04 13:44:03;;;;;;;10.88;6.68;;;;;;;;;;6147269;23;20324;-93
2023/12/04 13:46:52;;;;;;;12.68;7.45;;;;;;;;;;6148909;23;20040;-92
2023/12/04 13:49:38;;;;;;;11.80;6.72;;;;;;;;;;6166769;23;20025;-92
2023/12/04 13:52:07;;;;;;;13.30;7.05;;;;;;;;;;6144421;23;20023;-92
2023/12/04 13:54:56;;;;;;;11.13;6.90;;;;;;;;;;6159740;23;20028;-91
2023/12/04 13:57:43;;;;;;;91.10;41.90;;;;;;;;;;6123005;23;20052;-93
2023/12/04 14:00:38;;;;;;;54.15;24.85;;;;;;;;;;6172013;23;20024;-92
2023/12/04 14:03:07;;;;;;;210.85;82.82;;;;;;;;;;6143616;23;20340;-92
2023/12/04 14:05:34;;;;;;;412.75;151.13;;;;;;;;;;6123056;23;20088;-92
2023/12/04 14:08:04;;;;;;;252.77;90.32;;;;;;;;;;6146139;23;20009;-92
2023/12/04 14:10:31;;;;;;;183.43;62.78;;;;;;;;;;6172633;23;20394;-92
2023/12/04 14:12:58;;;;;;;454.38;154.10;;;;;;;;;;6164311;23;20493;-91
2023/12/04 14:15:26;;;;;;;230.48;81.40;;;;;;;;;;6122244;23;20047;-92
2023/12/04 14:17:55;;;;;;;220.98;76.00;;;;;;;;;;6165973;23;20644;-93
2023/12/04 14:20:25;;;;;;;1002.05;337.77;;;;;;;;;;6146559;23;20021;-93
2023/12/04 14:23:13;;;;;;;785.55;256.27;;;;;;;;;;6175001;23;20036;-92
2023/12/04 14:25:41;;;;;;;299.65;97.43;;;;;;;;;;6146818;23;20029;-92
2023/12/04 14:28:20;;;;;;;153.60;65.20;;;;;;;;;;6148973;23;20028;-92
2023/12/04 14:30:47;;;;;;;34.97;20.10;;;;;;;;;;6145152;23;20028;-92
2023/12/04 14:33:15;;;;;;;60.38;39.00;;;;;;;;;;6171691;23;20446;-92
2023/12/04 14:35:43;;;;;;;44.63;27.17;;;;;;;;;;6147292;23;20028;-91
2023/12/04 14:38:11;;;;;;;;;;;;;;;;;;6146076;23;20346;-92
2023/12/04 14:40:53;;;;;;;19.10;11.90;;;;;;;;;;6172193;23;19912;-92
2023/12/04 14:43:20;;;;;;;19.92;13.23;;;;;;;;;;6124633;23;20017;-92
2023/12/04 14:45:48;;;;;;;16.15;9.77;;;;;;;;;;6142159;23;20017;-93
2023/12/04 14:48:15;;;;;;;16.77;11.00;;;;;;;;;;6147011;23;20059;-92
2023/12/04 14:50:43;;;;;;;17.20;10.60;;;;;;;;;;6142808;23;20016;-92
2023/12/04 14:53:16;;;;;;;17.50;10.38;;;;;;;;;;6173610;23;20338;-92
2023/12/04 15:17:47;;;;;;;12.48;7.25;;;;;;;;;;6150043;23;20091;-92
2023/12/04 15:20:32;;;;;;;11.65;7.80;;;;;;;;;;6125205;23;20021;-92
2023/12/04 15:23:01;;;;;;;11.93;7.40;;;;;;;;;;6169148;23;20076;-91
2023/12/04 15:25:28;;;;;;;11.68;7.72;;;;;;;;;;6145325;23;20107;-92
2023/12/04 15:27:55;;;;;;;11.68;7.10;;;;;;;;;;6136419;23;20020;-93
2023/12/04 15:30:21;;;;;;;15.35;7.00;;;;;;;;;;6171970;23;20025;-91
2023/12/04 15:32:53;;;;;;;24.67;17.25;;;;;;;;;;6148719;23;20020;-88
2023/12/04 15:35:21;;;;;;;50.95;24.52;;;;;;;;;;6165062;23;20056;-90
2023/12/04 15:37:48;;;;;;;31.02;16.05;;;;;;;;;;6164060;23;20017;-93
2023/12/04 15:40:59;;;;;;;;;;;;;;;;;;;;;
2023/12/04 15:44:02;;;;;;;150.57;56.35;;;;;;;;;;6106836;23;20083;-92
2023/12/04 15:57:56;;;;;;;;;;;;;;;;;;;;;
2023/12/04 21:03:12;;;;;;;38.40;22.35;;;;;;;;;;6175695;23;20032;-83
2023/12/04 23:41:40;;;;;;;14.70;9.70;;;;;;;;;;6195010;23;20032;-83
2023/12/04 23:59:17;;;;;;;19.98;10.93;;;;;;;;;;6177703;23;20274;-83
